createdAt,value
2023-06-24T00:02:19.067Z,93.56
2023-06-24T00:04:45.676Z,93.57
2023-06-24T00:07:12.319Z,93.56
2023-06-24T00:09:39.033Z,93.89
2023-06-24T00:12:06.262Z,94.25
2023-06-24T00:14:32.807Z,94.13
2023-06-24T00:16:59.441Z,93.52
2023-06-24T00:19:26.802Z,93.95
2023-06-24T00:21:53.871Z,94.09
2023-06-24T00:24:23.801Z,94.58
2023-06-24T00:26:50.372Z,94.33
2023-06-24T00:29:17.006Z,94.80
2023-06-24T00:31:43.638Z,94.90
2023-06-24T00:34:10.323Z,94.42
2023-06-24T00:36:36.902Z,95.01
2023-06-24T00:39:03.724Z,95.05
2023-06-24T00:41:31.272Z,95.32
2023-06-24T00:43:58.134Z,94.95
2023-06-24T00:46:28.060Z,94.75
2023-06-24T00:48:56.102Z,94.73
2023-06-24T00:51:22.841Z,94.61
2023-06-24T00:53:49.456Z,94.65
2023-06-24T00:56:16.037Z,94.68
2023-06-24T00:58:42.628Z,94.80
2023-06-24T01:01:09.173Z,95.06
2023-06-24T01:03:35.777Z,95.02
2023-06-24T01:06:02.341Z,94.84
2023-06-24T01:08:28.946Z,95.07
2023-06-24T01:10:55.483Z,95.37
2023-06-24T01:13:22.379Z,95.40
2023-06-24T01:15:48.993Z,95.42
2023-06-24T01:18:39.635Z,95.73
2023-06-24T01:21:27.440Z,95.99
2023-06-24T01:23:54.048Z,95.99
2023-06-24T01:26:23.297Z,96.22
2023-06-24T01:28:55.615Z,96.13
2023-06-24T01:31:40.318Z,96.58
2023-06-24T01:34:19.138Z,96.43
2023-06-24T01:37:06.050Z,96.28
2023-06-24T01:39:32.694Z,96.55
2023-06-24T01:42:07.675Z,96.61
2023-06-24T01:44:34.235Z,96.11
2023-06-24T01:47:00.925Z,96.80
2023-06-24T01:49:29.380Z,96.35
2023-06-24T01:51:57.183Z,96.58
2023-06-24T01:54:23.744Z,96.37
2023-06-24T01:56:50.898Z,96.44
2023-06-24T01:59:18.166Z,96.14
2023-06-24T02:01:47.538Z,96.15
2023-06-24T02:04:13.953Z,95.76
2023-06-24T02:06:40.618Z,96.02
2023-06-24T02:09:07.201Z,96.08
2023-06-24T02:11:34.018Z,95.98
2023-06-24T02:14:00.708Z,95.86
2023-06-24T02:16:27.291Z,95.69
2023-06-24T02:18:53.991Z,96.13
2023-06-24T02:21:20.575Z,95.84
2023-06-24T02:23:47.760Z,95.81
2023-06-24T02:26:14.397Z,96.13
2023-06-24T02:28:40.939Z,95.54
2023-06-24T02:31:07.545Z,95.49
2023-06-24T02:33:34.089Z,95.60
2023-06-24T02:36:00.652Z,95.71
2023-06-24T02:38:28.962Z,95.10
2023-06-24T02:40:55.720Z,95.59
2023-06-24T02:43:22.303Z,95.72
2023-06-24T02:45:48.831Z,95.60
2023-06-24T02:48:15.416Z,95.06
2023-06-24T02:50:41.997Z,94.99
2023-06-24T02:53:08.920Z,94.95
2023-06-24T02:55:35.651Z,94.60
2023-06-24T02:58:03.247Z,95.09
2023-06-24T03:00:29.808Z,95.51
2023-06-24T03:02:56.492Z,95.36
2023-06-24T03:05:23.160Z,95.29
2023-06-24T03:07:49.736Z,95.04
2023-06-24T03:10:16.326Z,94.82
2023-06-24T03:12:42.891Z,94.95
2023-06-24T03:15:09.767Z,95.43
2023-06-24T03:17:37.310Z,94.83
2023-06-24T03:20:04.199Z,95.42
2023-06-24T03:22:30.728Z,95.48
2023-06-24T03:24:57.338Z,95.11
2023-06-24T03:27:24.244Z,95.07
2023-06-24T03:29:50.829Z,95.16
2023-06-24T03:32:17.458Z,94.99
2023-06-24T03:34:44.033Z,94.98
2023-06-24T03:37:10.654Z,95.43
2023-06-24T03:39:37.178Z,95.33
2023-06-24T03:42:03.960Z,95.47
2023-06-24T03:44:30.525Z,95.43
2023-06-24T03:46:57.121Z,95.45
2023-06-24T03:49:23.684Z,95.99
2023-06-24T03:51:50.295Z,95.76
2023-06-24T03:54:16.895Z,96.17
2023-06-24T03:56:43.435Z,95.76
2023-06-24T03:59:10.040Z,95.73
2023-06-24T04:01:36.648Z,96.02
2023-06-24T04:04:04.263Z,96.01
2023-06-24T04:06:30.895Z,96.38
2023-06-24T04:08:57.512Z,96.64
2023-06-24T04:11:24.160Z,96.72
2023-06-24T04:13:50.770Z,96.61
2023-06-24T04:16:17.405Z,96.68
2023-06-24T04:18:43.979Z,96.38
2023-06-24T04:21:10.556Z,96.45
2023-06-24T04:23:37.129Z,96.47
2023-06-24T04:26:03.720Z,96.73
2023-06-24T04:28:30.308Z,96.64
2023-06-24T04:30:57.222Z,96.90
2023-06-24T04:33:23.813Z,96.82
2023-06-24T04:35:50.431Z,97.05
2023-06-24T04:38:17.081Z,96.84
2023-06-24T04:40:43.653Z,96.98
2023-06-24T04:43:10.280Z,97.18
2023-06-24T04:45:37.081Z,97.12
2023-06-24T04:48:03.972Z,97.30
2023-06-24T04:50:30.592Z,97.60
2023-06-24T04:52:57.174Z,98.46
2023-06-24T04:55:23.823Z,98.59
2023-06-24T04:57:50.424Z,98.60
2023-06-24T05:00:17.061Z,98.43
2023-06-24T05:02:43.715Z,98.28
2023-06-24T05:05:10.440Z,98.49
2023-06-24T05:07:37.163Z,98.49
2023-06-24T05:10:04.026Z,98.49
2023-06-24T05:12:30.662Z,98.42
2023-06-24T05:14:57.316Z,98.43
2023-06-24T05:17:24.064Z,98.50
2023-06-24T05:19:50.806Z,98.55
2023-06-24T05:22:17.440Z,97.64
2023-06-24T05:24:43.976Z,97.80
2023-06-24T05:27:10.552Z,96.85
2023-06-24T05:29:37.148Z,96.97
2023-06-24T05:32:04.030Z,96.48
2023-06-24T05:34:31.463Z,96.20
2023-06-24T05:36:58.010Z,96.07
2023-06-24T05:39:25.228Z,96.00
2023-06-24T05:41:51.942Z,95.80
2023-06-24T05:44:18.580Z,94.74
2023-06-24T05:46:47.956Z,95.10
2023-06-24T05:49:14.508Z,95.00
2023-06-24T05:51:41.129Z,94.85
2023-06-24T05:54:07.678Z,94.50
2023-06-24T05:56:34.316Z,94.86
2023-06-24T05:59:00.965Z,94.16
2023-06-24T06:01:28.103Z,93.94
2023-06-24T06:03:54.707Z,93.52
2023-06-24T06:06:21.370Z,93.29
2023-06-24T06:08:48.520Z,93.21
2023-06-24T06:11:15.057Z,92.69
2023-06-24T06:13:41.649Z,92.29
2023-06-24T06:16:08.249Z,92.15
2023-06-24T06:18:34.810Z,91.21
2023-06-24T06:21:01.435Z,91.01
2023-06-24T06:23:28.007Z,91.14
2023-06-24T06:25:54.570Z,90.77
2023-06-24T06:28:21.175Z,90.97
2023-06-24T06:30:47.858Z,91.12
2023-06-24T06:33:14.480Z,90.79
2023-06-24T06:35:41.075Z,89.16
2023-06-24T06:38:07.668Z,88.94
2023-06-24T06:40:34.223Z,88.50
2023-06-24T06:43:00.851Z,88.44
2023-06-24T06:45:27.391Z,88.23
2023-06-24T06:47:54.191Z,87.87
2023-06-24T06:50:20.852Z,88.44
2023-06-24T06:52:47.525Z,88.51
2023-06-24T06:55:14.149Z,87.80
2023-06-24T06:57:40.766Z,87.59
2023-06-24T07:00:07.949Z,87.10
2023-06-24T07:02:34.600Z,86.57
2023-06-24T07:05:01.197Z,85.30
2023-06-24T07:07:27.882Z,85.24
2023-06-24T07:09:54.487Z,84.96
2023-06-24T07:12:21.140Z,84.25
2023-06-24T07:14:47.817Z,84.05
2023-06-24T07:17:14.481Z,84.14
2023-06-24T07:19:41.135Z,82.98
2023-06-24T07:22:07.827Z,83.39
2023-06-24T07:24:34.421Z,83.62
2023-06-24T07:27:01.010Z,82.73
2023-06-24T07:29:27.635Z,82.79
2023-06-24T07:31:54.255Z,81.88
2023-06-24T07:34:20.861Z,81.41
2023-06-24T07:36:47.406Z,81.32
2023-06-24T07:39:14.043Z,80.82
2023-06-24T07:41:40.629Z,80.96
2023-06-24T07:44:07.192Z,80.76
2023-06-24T07:46:33.904Z,80.28
2023-06-24T07:49:00.490Z,79.96
2023-06-24T07:51:27.071Z,78.95
2023-06-24T07:53:53.673Z,77.51
2023-06-24T07:56:20.264Z,77.37
2023-06-24T07:58:46.884Z,77.04
2023-06-24T08:01:13.516Z,77.40
2023-06-24T08:03:40.235Z,76.92
2023-06-24T08:06:06.975Z,75.63
2023-06-24T08:08:33.643Z,75.19
2023-06-24T08:11:00.230Z,75.45
2023-06-24T08:13:26.893Z,75.32
2023-06-24T08:15:53.533Z,74.38
2023-06-24T08:18:20.112Z,72.37
2023-06-24T08:20:46.715Z,71.86
2023-06-24T08:23:13.340Z,72.14
2023-06-24T08:25:40.027Z,71.88
2023-06-24T08:28:06.586Z,68.71
2023-06-24T08:30:33.209Z,69.25
2023-06-24T08:32:59.848Z,68.54
2023-06-24T08:35:26.446Z,67.76
2023-06-24T08:37:53.065Z,66.05
2023-06-24T08:40:19.682Z,64.27
2023-06-24T08:42:46.252Z,64.95
2023-06-24T08:45:12.894Z,65.67
2023-06-24T08:47:39.536Z,65.33
2023-06-24T08:50:08.909Z,65.06
2023-06-24T08:52:38.797Z,65.39
2023-06-24T08:55:05.926Z,66.31
2023-06-24T08:57:32.556Z,66.08
2023-06-24T08:59:59.201Z,65.84
2023-06-24T09:02:25.843Z,65.02
2023-06-24T09:04:52.549Z,64.90
2023-06-24T09:07:28.568Z,64.65
2023-06-24T09:09:55.302Z,64.81
2023-06-24T09:12:21.890Z,64.13
2023-06-24T09:14:51.555Z,63.71
2023-06-24T09:17:18.688Z,63.37
2023-06-24T09:19:45.310Z,61.64
2023-06-24T09:22:11.926Z,60.98
2023-06-24T09:24:38.652Z,61.10
2023-06-24T09:27:06.046Z,60.54
2023-06-24T09:29:34.676Z,60.56
2023-06-24T09:32:01.741Z,60.39
2023-06-24T09:34:29.515Z,60.84
2023-06-24T09:36:57.147Z,59.53
2023-06-24T09:39:30.223Z,57.83
2023-06-24T09:42:01.813Z,58.90
2023-06-24T09:44:28.863Z,58.82
2023-06-24T09:46:56.069Z,57.59
2023-06-24T09:49:22.970Z,57.14
2023-06-24T09:51:50.916Z,56.50
2023-06-24T09:54:17.503Z,55.48
2023-06-24T09:56:44.777Z,55.03
2023-06-24T09:59:11.920Z,54.92
2023-06-24T10:01:39.947Z,55.55
2023-06-24T10:04:09.705Z,55.53
2023-06-24T10:06:36.672Z,54.84
2023-06-24T10:09:03.411Z,54.20
2023-06-24T10:11:30.057Z,54.33
2023-06-24T10:13:56.650Z,54.26
2023-06-24T10:16:23.250Z,53.61
2023-06-24T10:18:49.875Z,53.19
2023-06-24T10:21:16.600Z,54.34
2023-06-24T10:23:44.235Z,55.07
2023-06-24T10:26:11.402Z,55.71
2023-06-24T10:29:05.945Z,54.81
2023-06-24T10:31:41.505Z,55.27
2023-06-24T10:34:19.940Z,55.39
2023-06-24T10:36:56.043Z,55.05
2023-06-24T10:39:53.469Z,54.71
2023-06-24T10:42:29.161Z,55.83
2023-06-24T10:44:57.126Z,53.57
2023-06-24T10:47:24.107Z,53.77
2023-06-24T10:49:51.676Z,54.17
2023-06-24T10:52:22.646Z,53.16
2023-06-24T10:54:49.615Z,52.22
2023-06-24T10:57:16.321Z,53.51
2023-06-24T10:59:43.262Z,53.43
2023-06-24T11:02:10.193Z,53.81
2023-06-24T11:04:47.247Z,54.60
2023-06-24T11:07:13.937Z,54.26
2023-06-24T11:09:43.681Z,53.54
2023-06-24T11:12:10.916Z,53.10
2023-06-24T11:14:37.802Z,53.02
2023-06-24T11:17:04.953Z,52.95
2023-06-24T11:19:31.739Z,53.38
2023-06-24T11:22:00.736Z,53.00
2023-06-24T11:24:30.679Z,51.75
2023-06-24T11:26:57.355Z,50.98
2023-06-24T11:29:24.226Z,51.31
2023-06-24T11:31:51.294Z,50.27
2023-06-24T11:34:17.992Z,49.89
2023-06-24T11:36:44.613Z,49.23
2023-06-24T11:39:24.082Z,48.96
2023-06-24T11:41:51.093Z,49.64
2023-06-24T11:44:21.360Z,49.59
2023-06-24T11:46:48.355Z,49.67
2023-06-24T11:49:14.946Z,50.47
2023-06-24T11:51:49.076Z,49.40
2023-06-24T11:54:17.233Z,49.79
2023-06-24T11:56:44.653Z,48.46
2023-06-24T11:59:20.725Z,48.58
2023-06-24T12:01:56.792Z,49.24
2023-06-24T12:04:28.928Z,48.21
2023-06-24T12:06:55.529Z,48.82
2023-06-24T12:09:22.202Z,48.55
2023-06-24T12:11:48.806Z,48.42
2023-06-24T12:14:15.412Z,47.95
2023-06-24T12:16:42.011Z,48.09
2023-06-24T12:19:08.744Z,48.50
2023-06-24T12:21:35.793Z,48.04
2023-06-24T12:24:05.964Z,46.40
2023-06-24T12:26:32.737Z,45.74
2023-06-24T12:28:59.327Z,47.57
2023-06-24T12:31:26.037Z,47.34
2023-06-24T12:33:52.740Z,47.14
2023-06-24T12:36:22.860Z,45.32
2023-06-24T12:38:49.477Z,45.98
2023-06-24T12:41:16.012Z,45.75
2023-06-24T12:43:42.597Z,45.15
2023-06-24T12:46:09.823Z,45.97
2023-06-24T12:48:36.440Z,46.77
2023-06-24T12:51:03.014Z,48.30
2023-06-24T12:53:29.584Z,49.83
2023-06-24T12:55:56.333Z,50.23
2023-06-24T12:58:24.068Z,51.82
2023-06-24T13:00:50.837Z,52.51
2023-06-24T13:03:17.443Z,51.76
2023-06-24T13:05:44.232Z,51.79
2023-06-24T13:08:10.812Z,49.53
2023-06-24T13:10:37.765Z,49.59
2023-06-24T13:13:04.611Z,49.03
2023-06-24T13:15:31.185Z,48.03
2023-06-24T13:17:57.929Z,47.06
2023-06-24T13:20:24.515Z,46.22
2023-06-24T13:22:51.098Z,45.48
2023-06-24T13:25:17.923Z,47.16
2023-06-24T13:27:44.923Z,48.65
2023-06-24T13:30:12.068Z,49.91
2023-06-24T13:32:38.699Z,50.17
2023-06-24T13:35:05.963Z,50.09
2023-06-24T13:37:32.865Z,46.66
2023-06-24T13:39:59.465Z,47.81
2023-06-24T13:42:26.120Z,47.83
2023-06-24T13:44:52.752Z,48.17
2023-06-24T13:47:19.383Z,47.00
2023-06-24T13:49:46.020Z,47.39
2023-06-24T13:52:12.604Z,48.09
2023-06-24T13:54:39.226Z,48.41
2023-06-24T13:57:05.838Z,50.26
2023-06-24T13:59:32.399Z,50.61
2023-06-24T14:01:58.987Z,51.79
2023-06-24T14:04:25.587Z,52.20
2023-06-24T14:06:52.237Z,52.79
2023-06-24T14:09:18.914Z,52.44
2023-06-24T14:11:45.496Z,51.48
2023-06-24T14:14:12.127Z,49.41
2023-06-24T14:16:38.713Z,48.19
2023-06-24T14:19:05.414Z,47.62
2023-06-24T14:21:32.041Z,47.95
2023-06-24T14:24:04.048Z,49.02
2023-06-24T14:26:38.012Z,50.00
2023-06-24T14:29:04.640Z,49.34
2023-06-24T14:31:31.314Z,47.82
2023-06-24T14:33:57.965Z,48.11
2023-06-24T14:36:24.567Z,49.49
2023-06-24T14:38:51.161Z,48.95
2023-06-24T14:41:17.777Z,49.07
2023-06-24T14:43:44.352Z,49.65
2023-06-24T14:46:10.957Z,50.05
2023-06-24T14:48:37.555Z,50.72
2023-06-24T14:51:04.098Z,50.53
2023-06-24T14:53:30.693Z,49.95
2023-06-24T14:55:57.245Z,51.50
2023-06-24T14:58:23.874Z,51.24
2023-06-24T15:00:50.442Z,52.09
2023-06-24T15:03:17.171Z,52.78
2023-06-24T15:05:43.842Z,53.30
2023-06-24T15:08:10.419Z,54.38
2023-06-24T15:10:37.263Z,55.86
2023-06-24T15:13:04.107Z,54.90
2023-06-24T15:15:30.724Z,53.42
2023-06-24T15:17:57.362Z,53.45
2023-06-24T15:20:24.646Z,53.84
2023-06-24T15:22:51.463Z,53.84
2023-06-24T15:25:18.084Z,54.44
2023-06-24T15:27:44.642Z,54.75
2023-06-24T15:30:11.633Z,55.11
2023-06-24T15:32:38.435Z,54.94
2023-06-24T15:35:05.365Z,55.72
2023-06-24T15:37:32.189Z,56.44
2023-06-24T15:39:58.820Z,56.30
2023-06-24T15:42:25.372Z,57.35
2023-06-24T15:44:53.918Z,55.43
2023-06-24T15:47:20.921Z,55.24
2023-06-24T15:49:47.455Z,55.28
2023-06-24T15:52:14.081Z,56.34
2023-06-24T15:54:40.700Z,56.42
2023-06-24T15:57:07.282Z,56.28
2023-06-24T15:59:33.856Z,55.69
2023-06-24T16:02:00.506Z,56.54
2023-06-24T16:04:27.098Z,56.95
2023-06-24T16:06:53.728Z,57.40
2023-06-24T16:09:20.313Z,57.77
2023-06-24T16:11:47.009Z,58.44
2023-06-24T16:14:13.619Z,58.98
2023-06-24T16:16:40.190Z,59.08
2023-06-24T16:19:06.750Z,59.74
2023-06-24T16:21:33.938Z,59.04
2023-06-24T16:24:00.511Z,59.14
2023-06-24T16:26:28.754Z,58.69
2023-06-24T16:28:57.032Z,59.33
2023-06-24T16:31:23.711Z,58.72
2023-06-24T16:33:50.363Z,58.49
2023-06-24T16:36:16.965Z,58.81
2023-06-24T16:38:43.539Z,58.21
2023-06-24T16:41:10.148Z,58.78
2023-06-24T16:43:36.736Z,58.66
2023-06-24T16:46:03.343Z,58.88
2023-06-24T16:48:29.927Z,59.38
2023-06-24T16:50:56.552Z,59.57
2023-06-24T16:53:23.128Z,59.60
2023-06-24T16:55:49.766Z,59.34
2023-06-24T16:58:16.344Z,59.78
2023-06-24T17:00:42.933Z,60.16
2023-06-24T17:03:09.579Z,60.43
2023-06-24T17:05:36.228Z,60.56
2023-06-24T17:08:02.796Z,60.33
2023-06-24T17:10:29.367Z,62.15
2023-06-24T17:12:55.956Z,61.05
2023-06-24T17:15:22.538Z,59.90
2023-06-24T17:17:49.114Z,59.83
2023-06-24T17:20:15.774Z,59.51
2023-06-24T17:22:42.398Z,59.56
2023-06-24T17:25:09.470Z,59.95
2023-06-24T17:27:36.039Z,59.85
2023-06-24T17:30:02.699Z,60.52
2023-06-24T17:32:29.260Z,60.10
2023-06-24T17:34:55.905Z,60.34
2023-06-24T17:37:22.575Z,60.62
2023-06-24T17:39:49.186Z,60.84
2023-06-24T17:42:15.803Z,60.85
2023-06-24T17:44:42.346Z,59.88
2023-06-24T17:47:08.966Z,59.89
2023-06-24T17:49:35.551Z,59.92
2023-06-24T17:52:02.203Z,59.94
2023-06-24T17:54:28.790Z,59.99
2023-06-24T17:56:56.995Z,60.41
2023-06-24T17:59:23.565Z,60.79
2023-06-24T18:01:50.141Z,60.27
2023-06-24T18:04:17.133Z,60.35
2023-06-24T18:06:44.165Z,61.42
2023-06-24T18:09:10.781Z,61.36
2023-06-24T18:11:37.324Z,61.53
2023-06-24T18:14:03.926Z,61.67
2023-06-24T18:16:30.516Z,61.31
2023-06-24T18:18:57.201Z,61.09
2023-06-24T18:21:23.792Z,61.20
2023-06-24T18:23:50.440Z,61.83
2023-06-24T18:26:17.100Z,61.78
2023-06-24T18:28:44.107Z,62.20
2023-06-24T18:31:10.765Z,62.39
2023-06-24T18:33:37.372Z,62.03
2023-06-24T18:36:04.025Z,62.75
2023-06-24T18:38:30.621Z,62.23
2023-06-24T18:40:57.208Z,62.43
2023-06-24T18:43:23.767Z,62.56
2023-06-24T18:45:50.301Z,62.58
2023-06-24T18:48:16.973Z,63.57
2023-06-24T18:50:43.558Z,63.84
2023-06-24T18:53:10.164Z,63.54
2023-06-24T18:55:36.717Z,63.73
2023-06-24T18:58:03.283Z,63.75
2023-06-24T19:00:29.828Z,63.23
2023-06-24T19:02:56.525Z,63.42
2023-06-24T19:05:23.213Z,63.84
2023-06-24T19:07:49.798Z,64.71
2023-06-24T19:10:16.438Z,64.93
2023-06-24T19:12:43.022Z,65.32
2023-06-24T19:15:09.927Z,65.58
2023-06-24T19:17:36.522Z,65.99
2023-06-24T19:20:05.068Z,66.58
2023-06-24T19:22:31.647Z,66.64
2023-06-24T19:24:58.233Z,67.21
2023-06-24T19:27:24.833Z,67.73
2023-06-24T19:29:51.364Z,67.92
2023-06-24T19:32:18.160Z,68.12
2023-06-24T19:34:44.806Z,68.12
2023-06-24T19:37:11.590Z,68.37
2023-06-24T19:39:38.193Z,68.29
2023-06-24T19:42:05.072Z,68.86
2023-06-24T19:44:31.684Z,68.96
2023-06-24T19:46:58.326Z,69.27
2023-06-24T19:49:25.095Z,69.28
2023-06-24T19:51:51.670Z,69.47
2023-06-24T19:54:18.266Z,69.22
2023-06-24T19:56:44.802Z,69.14
2023-06-24T19:59:11.385Z,69.29
2023-06-24T20:01:37.953Z,69.73
2023-06-24T20:04:05.515Z,69.68
2023-06-24T20:06:32.046Z,69.60
2023-06-24T20:08:58.732Z,69.89
2023-06-24T20:11:25.322Z,69.90
2023-06-24T20:13:51.937Z,70.17
2023-06-24T20:16:18.490Z,70.45
2023-06-24T20:18:46.043Z,70.71
2023-06-24T20:21:12.658Z,70.91
2023-06-24T20:23:39.221Z,70.92
2023-06-24T20:26:05.830Z,71.38
2023-06-24T20:28:32.420Z,71.53
2023-06-24T20:30:59.017Z,71.64
2023-06-24T20:33:25.628Z,71.71
2023-06-24T20:35:52.149Z,71.80
2023-06-24T20:38:18.750Z,71.97
2023-06-24T20:40:45.367Z,72.07
2023-06-24T20:43:11.978Z,71.85
2023-06-24T20:45:38.564Z,72.11
2023-06-24T20:48:05.341Z,72.49
2023-06-24T20:50:31.971Z,72.45
2023-06-24T20:52:58.602Z,72.63
2023-06-24T20:55:25.216Z,73.22
2023-06-24T20:57:51.860Z,73.18
2023-06-24T21:00:20.124Z,73.32
2023-06-24T21:02:48.130Z,73.67
2023-06-24T21:05:14.722Z,73.76
2023-06-24T21:07:41.303Z,73.98
2023-06-24T21:10:08.176Z,74.14
2023-06-24T21:12:40.568Z,74.28
2023-06-24T21:15:17.266Z,74.59
2023-06-24T21:17:43.903Z,74.63
2023-06-24T21:20:10.847Z,74.73
2023-06-24T21:22:37.493Z,75.02
2023-06-24T21:25:04.259Z,75.25
2023-06-24T21:27:30.820Z,75.47
2023-06-24T21:29:58.175Z,75.67
2023-06-24T21:32:24.813Z,75.91
2023-06-24T21:34:51.426Z,75.99
2023-06-24T21:37:18.020Z,76.05
2023-06-24T21:39:44.608Z,76.16
2023-06-24T21:42:11.153Z,76.24
2023-06-24T21:44:37.768Z,76.50
2023-06-24T21:47:04.721Z,76.43
2023-06-24T21:49:31.449Z,76.62
2023-06-24T21:51:58.106Z,76.88
2023-06-24T21:54:24.932Z,77.02
2023-06-24T21:56:51.510Z,77.21
2023-06-24T21:59:19.104Z,77.50
2023-06-24T22:01:46.562Z,77.66
2023-06-24T22:04:13.159Z,77.98
2023-06-24T22:06:39.853Z,77.98
2023-06-24T22:09:06.463Z,78.18
2023-06-24T22:11:35.114Z,78.63
2023-06-24T22:14:03.200Z,78.50
2023-06-24T22:16:29.803Z,78.77
2023-06-24T22:18:56.399Z,78.94
2023-06-24T22:21:22.977Z,79.19
2023-06-24T22:23:49.551Z,79.04
2023-06-24T22:26:16.134Z,79.42
2023-06-24T22:28:42.722Z,79.42
2023-06-24T22:31:09.308Z,79.61
2023-06-24T22:33:36.016Z,79.94
2023-06-24T22:36:02.591Z,80.26
2023-06-24T22:38:29.204Z,80.16
2023-06-24T22:40:55.748Z,80.17
2023-06-24T22:43:22.381Z,80.44
2023-06-24T22:45:50.163Z,80.72
2023-06-24T22:48:16.785Z,81.12
2023-06-24T22:50:43.380Z,81.33
2023-06-24T22:53:09.972Z,81.22
2023-06-24T22:55:36.579Z,81.99
2023-06-24T22:58:03.135Z,81.62
2023-06-24T23:00:29.736Z,81.92
2023-06-24T23:02:56.750Z,82.08
2023-06-24T23:05:23.640Z,82.30
2023-06-24T23:07:50.499Z,82.63
2023-06-24T23:10:17.487Z,82.40
2023-06-24T23:12:44.214Z,82.72
2023-06-24T23:15:11.148Z,82.80
2023-06-24T23:17:37.795Z,82.79
2023-06-24T23:20:04.866Z,82.81
2023-06-24T23:22:31.765Z,82.98
2023-06-24T23:24:58.504Z,83.04
2023-06-24T23:27:25.623Z,83.68
2023-06-24T23:29:53.664Z,83.58
2023-06-24T23:32:20.438Z,83.79
2023-06-24T23:34:50.529Z,83.77
2023-06-24T23:37:17.302Z,84.04
2023-06-24T23:39:44.156Z,83.75
2023-06-24T23:42:11.513Z,83.92
2023-06-24T23:44:38.386Z,84.61
2023-06-24T23:47:07.624Z,84.39
2023-06-24T23:49:34.666Z,84.82
2023-06-24T23:52:01.331Z,84.81
2023-06-24T23:54:27.997Z,84.67
2023-06-24T23:56:54.599Z,85.32
2023-06-24T23:59:21.220Z,85.09
